createdAt,value
2023-05-01T00:02:00.176Z,5.78
2023-05-01T00:04:28.587Z,6.85
2023-05-01T00:06:56.839Z,7.00
2023-05-01T00:09:25.041Z,8.10
2023-05-01T00:11:53.223Z,7.60
2023-05-01T00:14:21.541Z,7.80
2023-05-01T00:16:49.876Z,5.35
2023-05-01T00:19:19.811Z,10.93
2023-05-01T00:21:49.232Z,8.27
2023-05-01T00:24:17.881Z,10.68
2023-05-01T00:26:47.103Z,9.20
2023-05-01T00:29:15.406Z,10.05
2023-05-01T00:31:43.887Z,10.15
2023-05-01T00:34:12.606Z,7.72
2023-05-01T00:36:40.877Z,10.15
2023-05-01T00:39:09.391Z,10.95
2023-05-01T00:41:37.687Z,8.55
2023-05-01T00:44:06.181Z,7.00
2023-05-01T00:46:36.054Z,8.10
2023-05-01T00:49:05.502Z,8.32
2023-05-01T00:51:35.002Z,11.10
2023-05-01T00:54:04.223Z,10.60
2023-05-01T00:56:33.002Z,10.90
2023-05-01T00:59:01.768Z,9.82
2023-05-01T01:01:30.458Z,14.05
2023-05-01T01:03:58.737Z,10.27
2023-05-01T01:06:52.963Z,8.88
2023-05-01T01:09:51.744Z,11.20
2023-05-01T01:12:22.884Z,10.88
2023-05-01T01:15:18.293Z,13.35
2023-05-01T01:18:00.921Z,11.43
2023-05-01T01:20:54.294Z,12.15
2023-05-01T01:23:40.996Z,10.05
2023-05-01T01:26:23.974Z,13.52
2023-05-01T01:29:37.396Z,10.25
2023-05-01T01:32:12.371Z,11.20
2023-05-01T01:34:51.476Z,10.52
2023-05-01T01:37:25.991Z,14.82
2023-05-01T01:43:14.380Z,10.10
2023-05-01T01:45:55.728Z,7.00
2023-05-01T01:48:30.171Z,11.13
2023-05-01T01:51:00.596Z,8.20
2023-05-01T01:53:32.202Z,11.75
2023-05-01T01:56:03.865Z,9.70
2023-05-01T01:58:34.217Z,10.85
2023-05-01T02:01:04.866Z,9.65
2023-05-01T02:03:34.893Z,6.57
2023-05-01T02:06:05.633Z,12.55
2023-05-01T02:08:35.731Z,8.70
2023-05-01T02:11:04.747Z,8.98
2023-05-01T02:13:34.975Z,7.90
2023-05-01T02:16:04.902Z,6.63
2023-05-01T02:18:34.128Z,8.00
2023-05-01T02:21:04.510Z,7.40
2023-05-01T02:23:34.430Z,7.80
2023-05-01T02:26:05.144Z,6.75
2023-05-01T02:28:35.122Z,6.97
2023-05-01T02:31:03.380Z,7.93
2023-05-01T02:33:31.722Z,8.65
2023-05-01T02:35:59.862Z,9.13
2023-05-01T02:38:28.355Z,5.82
2023-05-01T02:40:59.370Z,8.10
2023-05-01T02:43:29.900Z,10.75
2023-05-01T02:46:00.750Z,9.35
2023-05-01T02:48:31.566Z,8.00
2023-05-01T02:51:02.155Z,8.07
2023-05-01T02:53:31.461Z,11.52
2023-05-01T02:56:00.185Z,6.05
2023-05-01T02:58:31.985Z,10.13
2023-05-01T03:01:00.215Z,9.13
2023-05-01T03:03:31.792Z,8.35
2023-05-01T03:06:00.826Z,4.78
2023-05-01T03:08:29.011Z,13.82
2023-05-01T03:10:57.220Z,8.43
2023-05-01T03:13:25.676Z,10.02
2023-05-01T03:15:53.909Z,9.50
2023-05-01T03:18:22.122Z,8.98
2023-05-01T03:20:57.790Z,9.48
2023-05-01T03:23:26.992Z,8.18
2023-05-01T03:25:55.618Z,7.07
2023-05-01T03:28:24.453Z,10.23
2023-05-01T03:30:53.526Z,7.85
2023-05-01T03:33:21.868Z,8.63
2023-05-01T03:35:50.309Z,9.15
2023-05-01T03:38:18.471Z,11.48
2023-05-01T03:40:46.864Z,7.30
2023-05-01T03:43:14.996Z,6.25
2023-05-01T03:45:44.804Z,5.32
2023-05-01T03:48:14.614Z,7.72
2023-05-01T03:50:43.139Z,7.22
2023-05-01T03:53:11.454Z,8.88
2023-05-01T03:55:39.642Z,6.30
2023-05-01T03:58:08.266Z,7.47
2023-05-01T04:00:36.409Z,5.13
2023-05-01T04:03:05.591Z,8.27
2023-05-01T04:05:34.434Z,5.85
2023-05-01T04:08:02.835Z,7.50
2023-05-01T04:10:31.742Z,6.32
2023-05-01T04:12:59.883Z,6.20
2023-05-01T04:15:28.087Z,6.63
2023-05-01T04:17:57.639Z,5.35
2023-05-01T04:20:25.814Z,5.13
2023-05-01T04:22:54.000Z,8.55
2023-05-01T04:25:22.282Z,5.05
2023-05-01T04:27:50.482Z,5.53
2023-05-01T04:30:19.025Z,7.53
2023-05-01T04:32:47.559Z,7.50
2023-05-01T04:35:15.805Z,7.80
2023-05-01T04:37:43.938Z,7.47
2023-05-01T04:40:12.874Z,7.07
2023-05-01T04:42:41.450Z,6.63
2023-05-01T04:45:09.965Z,7.38
2023-05-01T04:47:38.201Z,7.32
2023-05-01T04:50:07.099Z,3.20
2023-05-01T04:52:36.462Z,4.18
2023-05-01T04:55:04.803Z,4.07
2023-05-01T04:57:33.079Z,5.97
2023-05-01T05:00:01.239Z,6.28
2023-05-01T05:02:29.501Z,5.57
2023-05-01T05:04:58.453Z,4.32
2023-05-01T05:07:26.610Z,5.82
2023-05-01T05:09:55.069Z,7.47
2023-05-01T05:12:23.538Z,7.72
2023-05-01T05:14:51.685Z,7.50
2023-05-01T05:17:19.807Z,4.10
2023-05-01T05:19:48.244Z,5.22
2023-05-01T05:22:16.501Z,6.75
2023-05-01T05:24:45.436Z,7.32
2023-05-01T05:27:13.610Z,6.85
2023-05-01T05:29:41.776Z,7.22
2023-05-01T05:32:09.977Z,6.55
2023-05-01T05:34:38.252Z,9.35
2023-05-01T05:37:06.553Z,7.57
2023-05-01T05:39:34.693Z,6.25
2023-05-01T05:42:04.511Z,8.00
2023-05-01T05:44:33.843Z,7.78
2023-05-01T05:47:01.970Z,7.63
2023-05-01T05:49:30.148Z,10.02
2023-05-01T05:51:58.330Z,6.30
2023-05-01T05:54:26.444Z,5.85
2023-05-01T05:56:54.633Z,8.05
2023-05-01T05:59:22.755Z,8.88
2023-05-01T06:01:50.914Z,3.88
2023-05-01T06:04:19.098Z,5.82
2023-05-01T06:06:48.202Z,7.13
2023-05-01T06:09:18.041Z,4.10
2023-05-01T06:11:47.131Z,5.53
2023-05-01T06:14:16.095Z,6.30
2023-05-01T06:16:44.394Z,5.00
2023-05-01T06:19:13.059Z,8.07
2023-05-01T06:21:41.238Z,7.13
2023-05-01T06:24:09.392Z,3.72
2023-05-01T06:26:37.550Z,4.75
2023-05-01T06:29:05.745Z,6.00
2023-05-01T06:31:34.023Z,6.03
2023-05-01T06:34:02.247Z,4.90
2023-05-01T06:36:30.389Z,4.60
2023-05-01T06:38:58.603Z,5.10
2023-05-01T06:41:27.627Z,4.07
2023-05-01T06:43:55.886Z,6.68
2023-05-01T06:46:24.146Z,3.63
2023-05-01T06:48:52.290Z,6.90
2023-05-01T06:51:20.450Z,5.53
2023-05-01T06:53:48.639Z,3.78
2023-05-01T06:56:16.761Z,5.38
2023-05-01T06:58:44.895Z,4.68
2023-05-01T07:01:13.338Z,8.52
2023-05-01T07:03:41.568Z,3.78
2023-05-01T07:06:09.790Z,4.65
2023-05-01T07:08:37.956Z,5.57
2023-05-01T07:11:06.312Z,7.30
2023-05-01T07:13:34.530Z,5.57
2023-05-01T07:16:03.226Z,5.38
2023-05-01T07:18:31.530Z,4.57
2023-05-01T07:20:59.636Z,7.22
2023-05-01T07:23:28.000Z,4.32
2023-05-01T07:25:56.784Z,3.97
2023-05-01T07:28:24.967Z,6.57
2023-05-01T07:30:53.202Z,6.28
2023-05-01T07:33:21.439Z,3.20
2023-05-01T07:35:49.703Z,3.92
2023-05-01T07:38:18.883Z,4.55
2023-05-01T07:40:47.473Z,4.50
2023-05-01T07:43:15.654Z,4.18
2023-05-01T07:45:44.091Z,3.47
2023-05-01T07:48:12.431Z,5.25
2023-05-01T07:50:40.655Z,3.85
2023-05-01T07:53:08.926Z,5.25
2023-05-01T07:55:37.078Z,7.30
2023-05-01T07:58:05.216Z,4.68
2023-05-01T08:00:33.404Z,4.43
2023-05-01T08:03:01.600Z,3.35
2023-05-01T08:05:29.869Z,4.85
2023-05-01T08:07:58.066Z,3.95
2023-05-01T08:10:26.881Z,4.63
2023-05-01T08:12:55.027Z,6.50
2023-05-01T08:15:23.169Z,4.90
2023-05-01T08:17:52.241Z,5.20
2023-05-01T08:20:20.511Z,5.30
2023-05-01T08:22:48.754Z,4.55
2023-05-01T08:25:16.946Z,3.70
2023-05-01T08:27:45.266Z,3.38
2023-05-01T08:30:13.848Z,3.17
2023-05-01T08:32:42.034Z,5.85
2023-05-01T08:35:10.567Z,5.47
2023-05-01T08:37:39.156Z,5.97
2023-05-01T08:40:09.806Z,4.05
2023-05-01T08:42:40.723Z,4.43
2023-05-01T08:45:12.682Z,3.88
2023-05-01T08:47:41.681Z,3.65
2023-05-01T08:50:14.832Z,3.42
2023-05-01T08:52:43.923Z,3.47
2023-05-01T08:55:15.444Z,3.78
2023-05-01T08:57:47.941Z,4.00
2023-05-01T09:00:21.354Z,4.68
2023-05-01T09:02:51.781Z,3.72
2023-05-01T09:05:21.721Z,5.18
2023-05-01T09:07:50.216Z,6.28
2023-05-01T09:10:19.864Z,6.20
2023-05-01T09:12:59.315Z,4.10
2023-05-01T09:15:28.725Z,3.83
2023-05-01T09:17:59.645Z,3.38
2023-05-01T09:20:30.162Z,2.75
2023-05-01T09:22:58.608Z,3.40
2023-05-01T09:25:27.079Z,3.10
2023-05-01T09:27:57.228Z,3.20
2023-05-01T09:30:37.359Z,3.22
2023-05-01T09:33:13.316Z,4.22
2023-05-01T09:35:59.866Z,5.43
2023-05-01T09:38:30.079Z,3.72
2023-05-01T09:41:05.737Z,2.38
2023-05-01T09:43:33.946Z,2.72
2023-05-01T09:46:10.921Z,2.10
2023-05-01T09:48:39.780Z,3.65
2023-05-01T09:51:31.167Z,2.95
2023-05-01T09:54:00.874Z,3.88
2023-05-01T09:56:30.346Z,3.03
2023-05-01T09:59:15.111Z,2.70
2023-05-01T10:01:45.097Z,3.17
2023-05-01T10:04:14.091Z,3.10
2023-05-01T10:06:42.913Z,4.13
2023-05-01T10:09:29.144Z,1.38
2023-05-01T10:11:58.222Z,3.33
2023-05-01T10:14:27.645Z,3.42
2023-05-01T10:16:57.586Z,3.60
2023-05-01T10:19:26.033Z,2.83
2023-05-01T10:21:54.496Z,4.40
2023-05-01T10:24:23.420Z,4.78
2023-05-01T10:26:52.861Z,3.17
2023-05-01T10:29:24.578Z,4.22
2023-05-01T10:31:53.076Z,2.67
2023-05-01T10:34:26.218Z,1.85
2023-05-01T10:37:14.105Z,2.88
2023-05-01T10:39:42.400Z,2.83
2023-05-01T10:42:15.724Z,5.20
2023-05-01T10:44:44.481Z,3.55
2023-05-01T10:47:35.410Z,2.92
2023-05-01T10:50:10.586Z,4.60
2023-05-01T10:53:13.787Z,4.22
2023-05-01T10:55:47.129Z,3.33
2023-05-01T10:58:35.751Z,3.63
2023-05-01T11:01:35.831Z,2.42
2023-05-01T11:04:08.681Z,4.47
2023-05-01T11:06:38.790Z,4.55
2023-05-01T11:09:38.922Z,5.15
2023-05-01T11:12:08.371Z,7.05
2023-05-01T11:14:55.121Z,4.07
2023-05-01T11:17:42.185Z,5.18
2023-05-01T11:20:39.483Z,4.38
2023-05-01T11:23:08.523Z,3.80
2023-05-01T11:25:36.663Z,3.22
2023-05-01T11:28:07.448Z,4.22
2023-05-01T11:30:42.002Z,5.55
2023-05-01T11:35:40.059Z,3.95
2023-05-01T11:38:17.332Z,2.65
2023-05-01T11:40:46.307Z,2.33
2023-05-01T11:43:14.717Z,6.68
2023-05-01T11:45:42.961Z,2.95
2023-05-01T11:48:17.354Z,3.00
2023-05-01T11:50:45.851Z,3.85
2023-05-01T11:53:19.430Z,4.25
2023-05-01T11:55:48.045Z,3.60
2023-05-01T11:58:16.205Z,4.32
2023-05-01T12:00:45.071Z,6.03
2023-05-01T12:03:15.532Z,3.38
2023-05-01T12:05:45.737Z,4.35
2023-05-01T12:08:21.782Z,4.57
2023-05-01T12:10:56.974Z,4.30
2023-05-01T12:13:26.149Z,3.45
2023-05-01T12:15:56.380Z,6.38
2023-05-01T12:18:24.820Z,4.18
2023-05-01T12:20:56.208Z,2.85
2023-05-01T12:23:35.889Z,6.32
2023-05-01T12:26:20.856Z,5.22
2023-05-01T12:31:31.005Z,3.28
2023-05-01T12:34:01.659Z,3.13
2023-05-01T12:36:32.468Z,4.95
2023-05-01T12:39:12.695Z,2.38
2023-05-01T12:41:46.228Z,4.38
2023-05-01T12:44:28.531Z,3.97
2023-05-01T12:47:04.744Z,4.05
2023-05-01T12:49:33.551Z,3.53
2023-05-01T12:52:02.794Z,6.85
2023-05-01T12:54:34.772Z,2.92
2023-05-01T12:57:15.651Z,4.20
2023-05-01T12:59:47.895Z,3.08
2023-05-01T13:02:18.697Z,4.13
2023-05-01T13:04:50.009Z,3.00
2023-05-01T13:07:20.036Z,2.63
2023-05-01T13:09:54.734Z,2.50
2023-05-01T13:12:23.673Z,3.80
2023-05-01T13:14:52.525Z,1.58
2023-05-01T13:17:28.814Z,2.47
2023-05-01T13:19:58.867Z,3.22
2023-05-01T13:22:38.147Z,2.75
2023-05-01T13:25:16.863Z,2.65
2023-05-01T13:27:55.178Z,2.83
2023-05-01T13:30:34.365Z,3.40
2023-05-01T13:33:02.739Z,2.03
2023-05-01T13:35:31.821Z,3.50
2023-05-01T13:37:59.947Z,3.88
2023-05-01T13:40:29.018Z,3.20
2023-05-01T13:42:57.450Z,3.30
2023-05-01T13:45:27.303Z,2.50
2023-05-01T13:47:56.163Z,3.38
2023-05-01T13:50:24.440Z,4.32
2023-05-01T13:52:52.717Z,2.38
2023-05-01T13:55:22.779Z,3.05
2023-05-01T13:57:51.459Z,2.72
2023-05-01T14:00:20.337Z,3.50
2023-05-01T14:02:50.148Z,3.00
2023-05-01T14:05:25.829Z,1.50
2023-05-01T14:07:56.344Z,2.55
2023-05-01T14:10:28.170Z,2.17
2023-05-01T14:13:00.290Z,3.72
2023-05-01T14:15:29.674Z,2.75
2023-05-01T14:17:59.679Z,1.90
2023-05-01T14:20:28.289Z,4.38
2023-05-01T14:22:56.481Z,2.65
2023-05-01T14:25:26.041Z,3.83
2023-05-01T14:27:55.801Z,1.13
2023-05-01T14:30:34.296Z,3.28
2023-05-01T14:33:04.367Z,2.97
2023-05-01T14:35:32.733Z,1.98
2023-05-01T14:38:14.524Z,2.50
2023-05-01T14:40:43.721Z,2.47
2023-05-01T14:43:18.687Z,2.65
2023-05-01T14:45:49.984Z,2.47
2023-05-01T14:48:26.281Z,1.05
2023-05-01T14:50:55.630Z,2.90
2023-05-01T14:53:24.144Z,1.85
2023-05-01T14:55:53.189Z,2.92
2023-05-01T14:58:21.535Z,2.90
2023-05-01T15:00:49.769Z,1.73
2023-05-01T15:03:18.255Z,2.78
2023-05-01T15:05:47.162Z,1.88
2023-05-01T15:08:15.381Z,4.32
2023-05-01T15:10:44.389Z,1.80
2023-05-01T15:13:12.646Z,1.45
2023-05-01T15:15:41.020Z,1.55
2023-05-01T15:18:09.358Z,1.52
2023-05-01T15:20:38.428Z,1.88
2023-05-01T15:23:06.625Z,2.10
2023-05-01T15:25:34.839Z,1.55
2023-05-01T15:28:04.111Z,0.75
2023-05-01T15:30:33.067Z,2.58
2023-05-01T15:33:01.397Z,1.67
2023-05-01T15:35:31.912Z,3.05
2023-05-01T15:38:00.112Z,0.80
2023-05-01T15:40:28.351Z,2.15
2023-05-01T15:42:56.728Z,2.78
2023-05-01T15:45:25.236Z,2.47
2023-05-01T15:47:53.606Z,1.27
2023-05-01T15:50:22.225Z,1.17
2023-05-01T15:52:50.969Z,1.27
2023-05-01T15:55:19.879Z,0.75
2023-05-01T15:57:49.483Z,3.00
2023-05-01T16:00:18.050Z,1.20
2023-05-01T16:02:46.372Z,2.88
2023-05-01T16:05:20.156Z,1.58
2023-05-01T16:07:54.549Z,2.92
2023-05-01T16:10:23.308Z,1.13
2023-05-01T16:12:52.049Z,1.35
2023-05-01T16:15:20.289Z,2.28
2023-05-01T16:17:50.532Z,2.28
2023-05-01T16:20:19.096Z,1.42
2023-05-01T16:22:47.868Z,1.40
2023-05-01T16:25:16.208Z,1.33
2023-05-01T16:27:48.273Z,1.90
2023-05-01T16:30:16.685Z,0.73
2023-05-01T16:32:46.856Z,1.45
2023-05-01T16:35:19.226Z,2.75
2023-05-01T16:37:47.728Z,1.70
2023-05-01T16:40:19.836Z,1.60
2023-05-01T16:42:56.973Z,1.23
2023-05-01T16:45:25.308Z,1.25
2023-05-01T16:47:53.565Z,0.65
2023-05-01T16:50:23.499Z,1.67
2023-05-01T16:52:53.332Z,0.82
2023-05-01T16:55:21.953Z,1.25
2023-05-01T16:57:50.236Z,0.47
2023-05-01T17:00:19.215Z,3.67
2023-05-01T17:02:50.523Z,0.90
2023-05-01T17:05:18.944Z,1.77
2023-05-01T17:07:47.488Z,1.20
2023-05-01T17:10:15.740Z,1.65
2023-05-01T17:12:44.622Z,2.45
2023-05-01T17:15:13.316Z,1.13
2023-05-01T17:17:41.578Z,2.05
2023-05-01T17:20:10.833Z,1.15
2023-05-01T17:22:39.087Z,2.20
2023-05-01T17:25:07.920Z,1.95
2023-05-01T17:27:36.094Z,2.42
2023-05-01T17:30:05.603Z,1.63
2023-05-01T17:32:37.413Z,1.42
2023-05-01T17:35:07.152Z,1.50
2023-05-01T17:37:35.441Z,5.20
2023-05-01T17:40:04.874Z,1.00
2023-05-01T17:42:33.114Z,0.50
2023-05-01T17:45:01.320Z,2.03
2023-05-01T17:47:29.559Z,2.67
2023-05-01T17:49:58.167Z,0.52
2023-05-01T17:52:26.764Z,1.23
2023-05-01T17:54:54.981Z,1.65
2023-05-01T17:57:23.265Z,1.52
2023-05-01T17:59:51.850Z,4.03
2023-05-01T18:02:20.131Z,2.10
2023-05-01T18:04:50.978Z,3.63
2023-05-01T18:07:19.149Z,1.70
2023-05-01T18:09:47.680Z,2.28
2023-05-01T18:12:15.915Z,1.02
2023-05-01T18:14:44.105Z,3.72
2023-05-01T18:17:12.396Z,1.15
2023-05-01T18:19:40.598Z,0.70
2023-05-01T18:22:09.486Z,1.98
2023-05-01T18:24:38.466Z,1.27
2023-05-01T18:27:06.667Z,1.98
2023-05-01T18:29:34.883Z,1.15
2023-05-01T18:32:03.600Z,2.45
2023-05-01T18:34:32.267Z,1.33
2023-05-01T18:37:00.413Z,2.30
2023-05-01T18:39:28.579Z,0.40
2023-05-01T18:41:57.016Z,1.85
2023-05-01T18:44:25.395Z,0.98
2023-05-01T18:46:53.772Z,1.65
2023-05-01T18:49:24.700Z,1.85
2023-05-01T18:51:53.307Z,1.45
2023-05-01T18:54:21.594Z,0.95
2023-05-01T18:56:49.839Z,1.52
2023-05-01T18:59:18.162Z,0.73
2023-05-01T19:01:46.465Z,0.63
2023-05-01T19:04:14.883Z,2.50
2023-05-01T19:06:43.047Z,1.15
2023-05-01T19:09:11.828Z,0.68
2023-05-01T19:11:40.036Z,2.53
2023-05-01T19:14:08.218Z,3.17
2023-05-01T19:16:36.578Z,0.93
2023-05-01T19:19:04.745Z,0.80
2023-05-01T19:21:32.990Z,0.68
2023-05-01T19:24:01.185Z,1.17
2023-05-01T19:26:30.159Z,1.33
2023-05-01T19:28:58.335Z,2.00
2023-05-01T19:31:26.679Z,0.88
2023-05-01T19:33:55.878Z,2.20
2023-05-01T19:36:24.109Z,5.85
2023-05-01T19:38:52.378Z,1.48
2023-05-01T19:41:20.481Z,0.65
2023-05-01T19:43:48.721Z,1.25
2023-05-01T19:46:17.073Z,1.20
2023-05-01T19:48:45.333Z,1.60
2023-05-01T19:51:13.727Z,2.47
2023-05-01T19:53:42.866Z,2.55
2023-05-01T19:56:11.253Z,2.28
2023-05-01T19:58:39.829Z,1.35
2023-05-01T20:01:09.975Z,0.80
2023-05-01T20:03:38.271Z,1.42
2023-05-01T20:06:07.102Z,1.75
2023-05-01T20:08:35.443Z,1.65
2023-05-01T20:11:04.144Z,1.52
2023-05-01T20:13:32.305Z,0.57
2023-05-01T20:16:00.570Z,1.38
2023-05-01T20:18:28.772Z,0.52
2023-05-01T20:20:56.964Z,4.13
2023-05-01T20:23:25.209Z,1.00
2023-05-01T20:25:54.221Z,1.00
2023-05-01T20:28:22.500Z,1.98
2023-05-01T20:30:50.858Z,1.77
2023-05-01T20:33:19.105Z,0.80
2023-05-01T20:35:48.121Z,2.60
2023-05-01T20:38:16.342Z,1.42
2023-05-01T20:40:44.607Z,1.10
2023-05-01T20:43:13.742Z,1.58
2023-05-01T20:45:41.952Z,1.05
2023-05-01T20:48:10.104Z,1.77
2023-05-01T20:50:38.262Z,1.02
2023-05-01T20:53:06.405Z,1.02
2023-05-01T20:55:34.631Z,3.33
2023-05-01T20:58:02.900Z,1.48
2023-05-01T21:00:31.132Z,1.33
2023-05-01T21:03:00.694Z,1.70
2023-05-01T21:05:29.267Z,0.50
2023-05-01T21:07:59.029Z,2.35
2023-05-01T21:10:27.264Z,0.60
2023-05-01T21:12:57.045Z,1.00
2023-05-01T21:15:25.512Z,2.72
2023-05-01T21:17:53.828Z,1.88
2023-05-01T21:20:34.118Z,0.82
2023-05-01T21:23:02.813Z,1.42
2023-05-01T21:25:32.573Z,1.00
2023-05-01T21:28:06.332Z,1.65
2023-05-01T21:30:36.840Z,1.38
2023-05-01T21:33:12.794Z,3.05
2023-05-01T21:35:43.772Z,1.52
2023-05-01T21:38:12.201Z,1.23
2023-05-01T21:40:43.661Z,0.65
2023-05-01T21:43:12.009Z,2.22
2023-05-01T21:45:44.586Z,2.28
2023-05-01T21:48:16.973Z,1.50
2023-05-01T21:50:48.941Z,2.30
2023-05-01T21:53:17.845Z,1.42
2023-05-01T21:55:49.270Z,1.25
2023-05-01T21:58:17.552Z,1.52
2023-05-01T22:00:47.894Z,1.52
2023-05-01T22:03:18.938Z,2.92
2023-05-01T22:05:47.597Z,1.08
2023-05-01T22:08:15.753Z,1.60
2023-05-01T22:10:46.194Z,0.88
2023-05-01T22:13:14.375Z,3.08
2023-05-01T22:15:42.675Z,2.25
2023-05-01T22:18:11.055Z,2.25
2023-05-01T22:20:39.269Z,1.63
2023-05-01T22:23:08.327Z,2.40
2023-05-01T22:25:36.480Z,0.63
2023-05-01T22:28:06.465Z,3.72
2023-05-01T22:30:35.663Z,2.33
2023-05-01T22:33:04.206Z,2.83
2023-05-01T22:35:32.550Z,1.45
2023-05-01T22:38:00.678Z,1.50
2023-05-01T22:40:29.976Z,1.70
2023-05-01T22:42:58.151Z,1.02
2023-05-01T22:45:26.580Z,3.40
2023-05-01T22:47:54.836Z,3.80
2023-05-01T22:50:23.071Z,1.27
2023-05-01T22:52:51.331Z,1.45
2023-05-01T22:55:19.494Z,2.42
2023-05-01T22:57:48.066Z,1.42
2023-05-01T23:00:16.882Z,1.10
2023-05-01T23:02:45.557Z,1.77
2023-05-01T23:05:13.855Z,1.23
2023-05-01T23:07:42.299Z,3.13
2023-05-01T23:10:11.260Z,2.33
2023-05-01T23:12:44.298Z,2.30
2023-05-01T23:15:17.763Z,1.48
2023-05-01T23:17:47.425Z,1.02
2023-05-01T23:20:24.389Z,3.30
2023-05-01T23:22:52.953Z,2.25
2023-05-01T23:25:27.670Z,2.65
2023-05-01T23:27:57.686Z,0.73
2023-05-01T23:30:26.030Z,1.33
2023-05-01T23:33:00.112Z,2.55
2023-05-01T23:35:28.395Z,2.17
2023-05-01T23:37:56.964Z,0.43
2023-05-01T23:40:25.498Z,2.85
2023-05-01T23:42:53.866Z,1.58
2023-05-01T23:45:22.036Z,1.98
2023-05-01T23:47:50.248Z,1.02
2023-05-01T23:50:18.587Z,3.03
2023-05-01T23:52:47.484Z,1.85
2023-05-01T23:55:15.713Z,1.85
2023-05-01T23:57:43.886Z,1.75
